createdAt,value
2018-09-25T00:03:56.099Z,1.50
2018-09-25T00:08:04.380Z,1.67
2018-09-25T00:12:12.571Z,2.23
2018-09-25T00:16:20.711Z,1.97
2018-09-25T00:20:28.903Z,2.03
2018-09-25T00:24:37.189Z,1.93
2018-09-25T00:28:45.506Z,2.20
2018-09-25T00:32:53.675Z,2.80
2018-09-25T00:37:01.885Z,2.20
2018-09-25T00:41:10.314Z,2.30
2018-09-25T00:45:18.616Z,2.37
2018-09-25T00:49:27.003Z,2.57
2018-09-25T00:53:35.190Z,2.47
2018-09-25T00:57:43.679Z,2.90
2018-09-25T01:01:51.814Z,2.60
2018-09-25T01:06:00.059Z,3.13
2018-09-25T01:10:08.513Z,3.17
2018-09-25T01:14:16.760Z,2.23
2018-09-25T01:18:25.138Z,3.20
2018-09-25T01:22:33.527Z,3.00
2018-09-25T01:26:41.756Z,3.33
2018-09-25T01:30:50.118Z,3.27
2018-09-25T01:34:58.339Z,2.60
2018-09-25T01:39:06.713Z,2.50
2018-09-25T01:43:14.873Z,3.03
2018-09-25T01:47:23.064Z,3.03
2018-09-25T01:51:31.331Z,3.00
2018-09-25T01:55:39.615Z,2.87
2018-09-25T01:59:47.930Z,2.93
2018-09-25T02:03:56.199Z,3.13
2018-09-25T02:08:04.490Z,3.20
2018-09-25T02:12:12.848Z,3.17
2018-09-25T02:16:21.298Z,3.30
2018-09-25T02:20:29.620Z,3.23
2018-09-25T02:24:38.061Z,3.50
2018-09-25T02:28:46.390Z,3.13
2018-09-25T02:32:54.616Z,3.23
2018-09-25T02:37:02.834Z,3.40
2018-09-25T02:41:11.255Z,3.00
2018-09-25T02:45:19.426Z,3.23
2018-09-25T02:49:27.652Z,3.40
2018-09-25T02:53:35.970Z,3.40
2018-09-25T02:57:44.283Z,3.53
2018-09-25T03:01:52.508Z,3.77
2018-09-25T03:06:00.675Z,3.00
2018-09-25T03:10:08.998Z,3.30
2018-09-25T03:14:17.192Z,3.30
2018-09-25T03:18:25.415Z,3.20
2018-09-25T03:22:33.733Z,3.37
2018-09-25T03:26:41.877Z,3.30
2018-09-25T03:30:50.044Z,3.60
2018-09-25T03:34:58.242Z,3.00
2018-09-25T03:39:06.682Z,3.20
2018-09-25T03:43:14.880Z,3.53
2018-09-25T03:47:23.151Z,3.80
2018-09-25T03:51:31.239Z,3.60
2018-09-25T03:55:39.628Z,3.80
2018-09-25T03:59:47.774Z,4.43
2018-09-25T04:03:56.078Z,3.60
2018-09-25T04:08:04.224Z,4.60
2018-09-25T04:12:12.571Z,5.00
2018-09-25T04:16:20.890Z,5.13
2018-09-25T04:20:29.117Z,4.93
2018-09-25T04:24:37.333Z,4.63
2018-09-25T04:28:45.435Z,5.60
2018-09-25T04:32:53.783Z,5.90
2018-09-25T04:37:03.918Z,5.00
2018-09-25T04:41:14.108Z,5.93
2018-09-25T04:45:22.390Z,6.00
2018-09-25T04:49:30.643Z,6.20
2018-09-25T04:53:38.963Z,6.47
2018-09-25T04:57:47.286Z,5.83
2018-09-25T05:01:55.677Z,7.00
2018-09-25T05:06:04.003Z,6.43
2018-09-25T05:10:12.378Z,6.50
2018-09-25T05:14:20.561Z,7.63
2018-09-25T05:18:28.981Z,9.47
2018-09-25T05:22:37.189Z,7.03
2018-09-25T05:26:45.469Z,6.80
2018-09-25T05:30:53.781Z,7.00
2018-09-25T05:35:02.317Z,7.53
2018-09-25T05:39:13.133Z,6.27
2018-09-25T05:43:21.410Z,7.53
2018-09-25T05:47:29.577Z,7.23
2018-09-25T05:51:37.724Z,6.57
2018-09-25T05:55:45.871Z,7.33
2018-09-25T05:59:53.945Z,7.10
2018-09-25T06:04:02.321Z,8.57
2018-09-25T06:08:10.640Z,8.57
2018-09-25T06:12:18.892Z,7.50
2018-09-25T06:16:27.220Z,6.83
2018-09-25T06:20:35.341Z,6.43
2018-09-25T06:24:43.603Z,5.70
2018-09-25T06:28:51.856Z,5.77
2018-09-25T06:32:59.994Z,5.50
2018-09-25T06:37:08.348Z,5.83
2018-09-25T06:41:16.471Z,5.90
2018-09-25T06:45:24.567Z,6.20
2018-09-25T06:49:32.822Z,5.60
2018-09-25T06:53:41.258Z,4.97
2018-09-25T06:57:49.687Z,4.90
2018-09-25T07:01:58.028Z,4.90
2018-09-25T07:06:06.321Z,4.70
2018-09-25T07:10:14.740Z,5.50
2018-09-25T07:14:22.859Z,4.80
2018-09-25T07:18:31.207Z,4.63
2018-09-25T07:22:39.565Z,4.47
2018-09-25T07:26:47.726Z,4.47
2018-09-25T07:30:55.949Z,5.30
2018-09-25T07:35:04.156Z,5.33
2018-09-25T07:39:14.056Z,5.10
2018-09-25T07:43:22.364Z,5.27
2018-09-25T07:47:30.633Z,5.13
2018-09-25T07:51:38.969Z,4.50
2018-09-25T07:55:47.245Z,5.57
2018-09-25T07:59:55.566Z,4.33
2018-09-25T08:04:03.832Z,4.60
2018-09-25T08:08:12.019Z,4.43
2018-09-25T08:12:20.270Z,4.63
2018-09-25T08:16:28.664Z,4.63
2018-09-25T08:20:36.889Z,4.43
2018-09-25T08:24:45.077Z,12.63
2018-09-25T08:28:53.291Z,4.23
2018-09-25T08:33:01.475Z,3.67
2018-09-25T08:37:09.730Z,3.83
2018-09-25T08:41:17.982Z,4.60
2018-09-25T08:45:26.344Z,4.07
2018-09-25T08:49:34.636Z,18.80
2018-09-25T08:53:42.939Z,3.80
2018-09-25T08:57:51.099Z,3.37
2018-09-25T09:01:59.280Z,2.90
2018-09-25T09:06:07.534Z,2.83
2018-09-25T09:10:15.651Z,3.07
2018-09-25T09:14:23.889Z,2.17
2018-09-25T09:18:32.032Z,2.47
2018-09-25T09:22:40.223Z,2.33
2018-09-25T09:26:48.493Z,2.17
2018-09-25T09:30:56.829Z,1.73
2018-09-25T09:35:04.961Z,1.87
2018-09-25T09:39:13.897Z,1.60
2018-09-25T09:43:22.109Z,1.90
2018-09-25T09:47:30.283Z,1.53
2018-09-25T09:51:38.568Z,2.53
2018-09-25T09:55:46.698Z,1.70
2018-09-25T09:59:54.896Z,2.00
2018-09-25T10:04:02.986Z,1.57
2018-09-25T10:08:11.176Z,1.10
2018-09-25T10:12:19.525Z,1.50
2018-09-25T10:16:27.676Z,1.27
2018-09-25T10:20:35.971Z,1.33
2018-09-25T10:24:44.143Z,1.10
2018-09-25T10:28:52.517Z,0.90
2018-09-25T10:33:00.734Z,1.97
2018-09-25T10:37:08.909Z,1.60
2018-09-25T10:41:17.059Z,4.20
2018-09-25T10:45:25.347Z,2.50
2018-09-25T10:49:33.711Z,3.33
2018-09-25T10:53:42.002Z,1.90
2018-09-25T10:57:50.261Z,1.13
2018-09-25T11:01:58.334Z,1.27
2018-09-25T11:06:06.603Z,1.03
2018-09-25T11:10:15.115Z,1.30
2018-09-25T11:14:23.367Z,1.00
2018-09-25T11:18:31.641Z,1.10
2018-09-25T11:22:39.881Z,1.23
2018-09-25T11:26:48.079Z,1.30
2018-09-25T11:30:56.277Z,1.53
2018-09-25T11:35:04.422Z,1.13
2018-09-25T11:39:13.035Z,1.07
2018-09-25T11:43:21.227Z,1.30
2018-09-25T11:47:29.558Z,1.00
2018-09-25T11:51:37.782Z,1.03
2018-09-25T11:55:46.034Z,1.23
2018-09-25T11:59:54.215Z,1.37
2018-09-25T12:04:02.657Z,1.10
2018-09-25T12:08:11.348Z,1.10
2018-09-25T12:12:19.568Z,1.00
2018-09-25T12:16:27.692Z,1.57
2018-09-25T12:20:35.962Z,1.00
2018-09-25T12:24:44.141Z,1.13
2018-09-25T12:28:52.331Z,0.90
2018-09-25T12:33:00.651Z,1.07
2018-09-25T12:37:08.765Z,0.90
2018-09-25T12:41:17.015Z,1.50
2018-09-25T12:45:25.202Z,1.43
2018-09-25T12:49:33.490Z,1.30
2018-09-25T12:53:41.623Z,1.17
2018-09-25T12:57:50.007Z,0.77
2018-09-25T13:01:58.158Z,0.90
2018-09-25T13:06:06.334Z,4.07
2018-09-25T13:10:14.525Z,1.10
2018-09-25T13:14:22.711Z,1.03
2018-09-25T13:18:30.903Z,1.00
2018-09-25T13:22:39.055Z,0.80
2018-09-25T13:26:47.275Z,1.77
2018-09-25T13:30:55.454Z,1.30
2018-09-25T13:35:03.738Z,0.97
2018-09-25T13:39:13.442Z,0.90
2018-09-25T13:43:21.627Z,1.43
2018-09-25T13:47:29.863Z,0.80
2018-09-25T13:51:38.079Z,1.10
2018-09-25T13:55:46.398Z,0.97
2018-09-25T13:59:54.877Z,0.93
2018-09-25T14:04:03.247Z,1.17
2018-09-25T14:08:11.673Z,0.90
2018-09-25T14:12:19.979Z,1.30
2018-09-25T14:16:28.369Z,1.30
2018-09-25T14:20:36.698Z,1.10
2018-09-25T14:24:45.200Z,1.00
2018-09-25T14:28:53.447Z,0.93
2018-09-25T14:33:01.790Z,1.10
2018-09-25T14:37:09.950Z,1.20
2018-09-25T14:41:18.203Z,1.30
2018-09-25T14:45:26.528Z,1.40
2018-09-25T14:49:34.920Z,1.47
2018-09-25T14:53:43.170Z,0.97
2018-09-25T14:57:51.359Z,1.20
2018-09-25T15:01:59.525Z,1.07
2018-09-25T15:06:07.854Z,1.23
2018-09-25T15:10:16.255Z,1.00
2018-09-25T15:14:24.657Z,0.80
2018-09-25T15:18:32.819Z,1.03
2018-09-25T15:22:41.032Z,1.00
2018-09-25T15:26:49.487Z,5.97
2018-09-25T15:30:57.888Z,1.33
2018-09-25T15:35:06.361Z,0.90
2018-09-25T15:39:14.738Z,1.00
2018-09-25T15:43:22.880Z,1.20
2018-09-25T15:47:31.085Z,1.13
2018-09-25T15:51:39.546Z,1.30
2018-09-25T15:55:47.848Z,1.00
2018-09-25T15:59:56.068Z,1.30
2018-09-25T16:04:04.392Z,1.37
2018-09-25T16:08:12.688Z,3.20
2018-09-25T16:12:21.058Z,1.60
2018-09-25T16:16:29.557Z,1.30
2018-09-25T16:20:38.079Z,1.53
2018-09-25T16:24:46.482Z,1.07
2018-09-25T16:28:54.710Z,1.07
2018-09-25T16:33:02.836Z,1.40
2018-09-25T16:37:11.455Z,1.10
2018-09-25T16:41:19.816Z,1.03
2018-09-25T16:45:28.115Z,1.30
2018-09-25T16:49:36.324Z,1.20
2018-09-25T16:53:44.707Z,1.03
2018-09-25T16:57:52.881Z,1.43
2018-09-25T17:02:01.004Z,1.10
2018-09-25T17:06:09.123Z,1.10
2018-09-25T17:10:17.518Z,1.23
2018-09-25T17:14:25.703Z,1.50
2018-09-25T17:18:33.952Z,1.00
2018-09-25T17:22:42.321Z,1.40
2018-09-25T17:26:50.443Z,1.20
2018-09-25T17:30:58.908Z,1.40
2018-09-25T17:35:07.069Z,1.33
2018-09-25T17:39:17.459Z,7.90
2018-09-25T17:43:25.573Z,2.27
2018-09-25T17:47:33.932Z,2.53
2018-09-25T17:51:42.190Z,2.13
2018-09-25T17:55:50.383Z,3.27
2018-09-25T17:59:58.748Z,2.30
2018-09-25T18:04:06.917Z,2.10
2018-09-25T18:08:15.181Z,2.93
2018-09-25T18:12:23.326Z,2.77
2018-09-25T18:16:32.009Z,2.30
2018-09-25T18:20:40.301Z,3.00
2018-09-25T18:24:50.323Z,2.90
2018-09-25T18:28:59.172Z,2.70
2018-09-25T18:33:07.503Z,2.73
2018-09-25T18:37:15.874Z,2.80
2018-09-25T18:41:24.079Z,2.53
2018-09-25T18:45:32.468Z,3.87
2018-09-25T18:49:40.829Z,3.00
2018-09-25T18:53:50.496Z,2.77
2018-09-25T18:58:00.144Z,3.60
2018-09-25T19:02:09.099Z,3.17
2018-09-25T19:06:20.727Z,4.43
2018-09-25T19:10:32.197Z,7.23
2018-09-25T19:14:40.527Z,6.17
2018-09-25T19:18:48.952Z,8.67
2018-09-25T19:22:57.400Z,6.83
2018-09-25T19:27:08.357Z,5.43
2018-09-25T19:31:17.233Z,4.53
2018-09-25T19:35:25.735Z,4.27
2018-09-25T19:39:34.108Z,4.30
2018-09-25T19:43:43.335Z,5.13
2018-09-25T19:47:51.580Z,4.90
2018-09-25T19:52:00.421Z,4.37
2018-09-25T19:56:08.517Z,5.10
2018-09-25T20:00:16.848Z,5.23
2018-09-25T20:04:25.203Z,5.37
2018-09-25T20:08:33.547Z,5.77
2018-09-25T20:12:41.836Z,6.53
2018-09-25T20:16:50.233Z,7.13
2018-09-25T20:20:58.676Z,7.20
2018-09-25T20:25:07.177Z,7.70
2018-09-25T20:29:15.585Z,8.23
2018-09-25T20:33:23.846Z,8.67
2018-09-25T20:37:32.124Z,8.87
2018-09-25T20:41:40.330Z,8.17
2018-09-25T20:45:48.513Z,7.83
2018-09-25T20:49:56.831Z,7.67
2018-09-25T20:54:09.392Z,7.60
2018-09-25T20:58:17.579Z,7.10
2018-09-25T21:02:25.853Z,9.23
2018-09-25T21:06:34.275Z,8.47
2018-09-25T21:10:42.606Z,10.23
2018-09-25T21:14:50.668Z,10.37
2018-09-25T21:18:58.935Z,10.23
2018-09-25T21:23:07.189Z,9.17
2018-09-25T21:27:15.469Z,10.23
2018-09-25T21:31:23.769Z,9.47
2018-09-25T21:35:31.990Z,9.37
2018-09-25T21:39:40.354Z,8.80
2018-09-25T21:43:49.304Z,8.37
2018-09-25T21:47:57.544Z,9.97
2018-09-25T21:52:05.755Z,8.37
2018-09-25T21:56:14.123Z,7.67
2018-09-25T22:00:23.354Z,8.37
2018-09-25T22:04:31.792Z,8.67
2018-09-25T22:08:39.897Z,8.73
2018-09-25T22:12:48.093Z,8.87
2018-09-25T22:16:56.462Z,9.00
2018-09-25T22:21:04.705Z,8.23
2018-09-25T22:25:13.642Z,9.13
2018-09-25T22:29:21.855Z,8.37
2018-09-25T22:33:30.211Z,9.33
2018-09-25T22:37:38.348Z,8.50
2018-09-25T22:41:46.661Z,8.93
2018-09-25T22:45:54.859Z,8.63
2018-09-25T22:50:02.972Z,9.17
2018-09-25T22:54:11.332Z,10.20
2018-09-25T22:58:19.698Z,9.50
2018-09-25T23:02:27.900Z,9.73
2018-09-25T23:06:36.236Z,8.97
2018-09-25T23:10:44.451Z,9.20
2018-09-25T23:14:52.772Z,9.83
2018-09-25T23:19:01.121Z,10.33
2018-09-25T23:23:09.253Z,10.67
2018-09-25T23:27:17.681Z,10.90
2018-09-25T23:31:25.963Z,11.17
2018-09-25T23:35:34.431Z,11.00
2018-09-25T23:39:49.290Z,11.20
2018-09-25T23:44:00.377Z,11.17
2018-09-25T23:48:09.483Z,11.83
2018-09-25T23:52:23.242Z,11.17
2018-09-25T23:56:34.246Z,11.50
